createdAt,value
2023-04-05T00:01:19.293Z,10.63
2023-04-05T00:03:41.298Z,46.17
2023-04-05T00:06:02.772Z,19.20
2023-04-05T00:08:26.788Z,13.43
2023-04-05T00:10:51.290Z,11.30
2023-04-05T00:13:12.800Z,13.30
2023-04-05T00:15:34.506Z,11.10
2023-04-05T00:17:56.476Z,12.57
2023-04-05T00:20:17.706Z,16.67
2023-04-05T00:22:39.555Z,14.33
2023-04-05T00:25:03.409Z,12.40
2023-04-05T00:27:26.270Z,13.13
2023-04-05T00:29:47.477Z,13.87
2023-04-05T00:32:08.930Z,13.47
2023-04-05T00:34:30.261Z,15.63
2023-04-05T00:36:51.335Z,13.70
2023-04-05T00:39:12.383Z,13.87
2023-04-05T00:41:33.596Z,12.17
2023-04-05T00:43:57.005Z,12.77
2023-04-05T00:46:18.359Z,12.60
2023-04-05T00:48:41.842Z,12.97
2023-04-05T00:51:03.189Z,13.63
2023-04-05T00:53:24.646Z,13.67
2023-04-05T00:55:47.843Z,12.07
2023-04-05T00:58:10.310Z,11.67
2023-04-05T01:00:33.572Z,14.53
2023-04-05T01:03:01.904Z,11.60
2023-04-05T01:05:34.381Z,13.00
2023-04-05T01:08:00.790Z,13.43
2023-04-05T01:10:23.110Z,12.70
2023-04-05T01:12:44.998Z,14.00
2023-04-05T01:15:10.045Z,12.70
2023-04-05T01:17:36.927Z,12.30
2023-04-05T01:19:59.429Z,14.47
2023-04-05T01:22:41.726Z,11.67
2023-04-05T01:25:15.366Z,11.83
2023-04-05T01:27:45.899Z,12.53
2023-04-05T01:30:10.777Z,11.57
2023-04-05T01:32:39.593Z,13.43
2023-04-05T01:35:03.725Z,13.17
2023-04-05T01:37:27.789Z,13.10
2023-04-05T01:39:50.766Z,12.87
2023-04-05T01:42:11.825Z,12.70
2023-04-05T01:44:32.842Z,12.80
2023-04-05T01:46:55.639Z,13.37
2023-04-05T01:49:16.647Z,12.20
2023-04-05T01:51:41.880Z,11.87
2023-04-05T01:54:02.882Z,17.17
2023-04-05T01:56:24.139Z,13.13
2023-04-05T01:58:45.760Z,12.67
2023-04-05T02:01:07.405Z,12.33
2023-04-05T02:03:32.554Z,11.93
2023-04-05T02:05:53.879Z,12.50
2023-04-05T02:08:15.932Z,12.00
2023-04-05T02:10:37.219Z,13.53
2023-04-05T02:12:58.866Z,12.83
2023-04-05T02:15:19.890Z,13.33
2023-04-05T02:17:46.262Z,13.43
2023-04-05T02:20:12.575Z,14.23
2023-04-05T02:22:34.073Z,13.37
2023-04-05T02:24:55.341Z,12.80
2023-04-05T02:27:16.621Z,14.77
2023-04-05T02:29:38.141Z,13.67
2023-04-05T02:31:59.784Z,12.10
2023-04-05T02:34:23.441Z,14.57
2023-04-05T02:36:45.838Z,14.33
2023-04-05T02:39:07.213Z,13.53
2023-04-05T02:41:28.213Z,12.30
2023-04-05T02:43:49.761Z,12.20
2023-04-05T02:46:11.160Z,11.07
2023-04-05T02:48:32.222Z,12.73
2023-04-05T02:50:53.407Z,11.30
2023-04-05T02:53:16.263Z,12.27
2023-04-05T02:55:37.192Z,13.07
2023-04-05T02:58:00.567Z,12.50
2023-04-05T03:00:22.285Z,12.43
2023-04-05T03:02:43.976Z,12.93
2023-04-05T03:05:05.620Z,13.60
2023-04-05T03:07:27.883Z,15.00
2023-04-05T03:09:51.344Z,12.63
2023-04-05T03:12:12.548Z,14.03
2023-04-05T03:14:34.773Z,12.87
2023-04-05T03:16:56.185Z,14.40
2023-04-05T03:19:18.775Z,13.03
2023-04-05T03:21:41.104Z,16.10
2023-04-05T03:24:02.909Z,13.50
2023-04-05T03:26:25.737Z,14.70
2023-04-05T03:28:47.391Z,12.70
2023-04-05T03:31:08.606Z,12.23
2023-04-05T03:33:30.072Z,13.07
2023-04-05T03:35:51.391Z,13.37
2023-04-05T03:38:12.600Z,14.27
2023-04-05T03:40:34.273Z,15.13
2023-04-05T03:43:00.176Z,14.00
2023-04-05T03:45:24.340Z,12.90
2023-04-05T03:47:46.176Z,11.67
2023-04-05T03:50:08.596Z,13.17
2023-04-05T03:52:30.643Z,14.67
2023-04-05T03:54:52.412Z,14.27
2023-04-05T03:57:13.930Z,15.87
2023-04-05T03:59:36.821Z,15.20
2023-04-05T04:01:57.867Z,15.80
2023-04-05T04:04:19.074Z,14.60
2023-04-05T04:06:40.209Z,13.57
2023-04-05T04:09:01.463Z,13.90
2023-04-05T04:11:22.633Z,12.97
2023-04-05T04:13:43.956Z,13.10
2023-04-05T04:16:07.139Z,13.73
2023-04-05T04:18:28.326Z,14.83
2023-04-05T04:20:49.555Z,13.37
2023-04-05T04:23:14.641Z,14.00
2023-04-05T04:25:35.942Z,14.87
2023-04-05T04:27:58.784Z,13.53
2023-04-05T04:30:22.995Z,14.77
2023-04-05T04:32:52.948Z,14.43
2023-04-05T04:35:18.314Z,14.57
2023-04-05T04:37:46.650Z,18.17
2023-04-05T04:40:10.067Z,14.07
2023-04-05T04:42:38.946Z,16.60
2023-04-05T04:45:04.474Z,16.53
2023-04-05T04:47:26.416Z,15.10
2023-04-05T04:49:48.892Z,14.20
2023-04-05T04:52:10.446Z,19.37
2023-04-05T04:54:34.284Z,17.23
2023-04-05T04:56:55.946Z,14.60
2023-04-05T04:59:17.000Z,14.00
2023-04-05T05:01:40.650Z,15.53
2023-04-05T05:04:01.733Z,15.30
2023-04-05T05:06:24.518Z,14.47
2023-04-05T05:08:46.457Z,14.13
2023-04-05T05:11:09.554Z,14.50
2023-04-05T05:13:32.775Z,15.87
2023-04-05T05:15:53.884Z,14.33
2023-04-05T05:18:16.023Z,71.70
2023-04-05T05:20:37.404Z,75.07
2023-04-05T05:23:06.716Z,95.50
2023-04-05T05:25:28.520Z,104.60
2023-04-05T05:27:51.407Z,82.03
2023-04-05T05:30:13.227Z,56.43
2023-04-05T05:32:34.581Z,36.37
2023-04-05T05:34:55.983Z,35.37
2023-04-05T05:37:17.602Z,34.17
2023-04-05T05:39:39.903Z,28.27
2023-04-05T05:42:01.091Z,23.23
2023-04-05T05:44:22.359Z,22.87
2023-04-05T05:46:43.851Z,20.67
2023-04-05T05:49:05.140Z,21.50
2023-04-05T05:51:26.286Z,26.80
2023-04-05T05:53:48.030Z,18.63
2023-04-05T05:56:10.470Z,20.03
2023-04-05T05:58:31.811Z,20.53
2023-04-05T06:00:56.864Z,22.33
2023-04-05T06:03:19.262Z,26.37
2023-04-05T06:05:40.421Z,20.57
2023-04-05T06:08:01.686Z,20.33
2023-04-05T06:10:24.291Z,17.50
2023-04-05T06:12:47.269Z,16.23
2023-04-05T06:15:09.109Z,18.37
2023-04-05T06:17:30.339Z,14.87
2023-04-05T06:19:51.946Z,15.00
2023-04-05T06:22:13.454Z,15.30
2023-04-05T06:24:34.853Z,18.33
2023-04-05T06:26:55.868Z,15.97
2023-04-05T06:29:18.670Z,16.83
2023-04-05T06:31:41.540Z,30.70
2023-04-05T06:34:02.532Z,27.73
2023-04-05T06:36:25.549Z,25.17
2023-04-05T06:38:48.606Z,23.43
2023-04-05T06:41:09.809Z,17.60
2023-04-05T06:43:31.509Z,16.73
2023-04-05T06:45:56.564Z,19.00
2023-04-05T06:48:18.018Z,15.97
2023-04-05T06:50:40.937Z,14.63
2023-04-05T06:53:02.574Z,13.37
2023-04-05T06:55:23.755Z,19.90
2023-04-05T06:57:45.054Z,20.53
2023-04-05T07:00:10.729Z,21.17
2023-04-05T07:02:35.560Z,15.93
2023-04-05T07:05:03.682Z,15.53
2023-04-05T07:07:24.930Z,16.63
2023-04-05T07:09:46.154Z,16.30
2023-04-05T07:12:08.326Z,14.57
2023-04-05T07:14:30.624Z,13.10
2023-04-05T07:16:52.437Z,13.30
2023-04-05T07:19:15.293Z,14.00
2023-04-05T07:21:36.494Z,12.70
2023-04-05T07:24:00.720Z,11.73
2023-04-05T07:26:22.514Z,11.07
2023-04-05T07:28:43.868Z,11.90
2023-04-05T07:31:06.786Z,10.47
2023-04-05T07:33:28.209Z,10.10
2023-04-05T07:35:54.518Z,13.37
2023-04-05T07:38:15.941Z,10.77
2023-04-05T07:40:37.378Z,10.67
2023-04-05T07:42:58.801Z,11.80
2023-04-05T07:45:20.773Z,11.57
2023-04-05T07:47:42.103Z,11.53
2023-04-05T07:50:03.410Z,11.17
2023-04-05T07:52:26.067Z,10.70
2023-04-05T07:54:47.001Z,10.90
2023-04-05T07:57:08.303Z,11.47
2023-04-05T07:59:29.225Z,10.23
2023-04-05T08:01:50.441Z,10.40
2023-04-05T08:04:11.559Z,9.67
2023-04-05T08:06:32.884Z,10.17
2023-04-05T08:08:55.588Z,10.07
2023-04-05T08:11:16.741Z,9.83
2023-04-05T08:13:40.420Z,9.50
2023-04-05T08:16:02.322Z,9.53
2023-04-05T08:18:23.557Z,9.53
2023-04-05T08:20:44.890Z,10.03
2023-04-05T08:23:06.212Z,9.43
2023-04-05T08:25:28.959Z,9.27
2023-04-05T08:27:50.027Z,9.33
2023-04-05T08:30:11.740Z,9.47
2023-04-05T08:32:33.188Z,9.60
2023-04-05T08:34:54.563Z,10.13
2023-04-05T08:37:16.079Z,9.10
2023-04-05T08:39:37.326Z,8.77
2023-04-05T08:42:04.808Z,8.93
2023-04-05T08:44:27.453Z,8.13
2023-04-05T08:46:49.055Z,7.70
2023-04-05T08:49:11.597Z,7.70
2023-04-05T08:51:33.425Z,9.43
2023-04-05T08:53:54.847Z,8.00
2023-04-05T08:56:17.174Z,7.07
2023-04-05T08:58:40.633Z,7.40
2023-04-05T09:01:02.055Z,6.87
2023-04-05T09:03:25.047Z,6.73
2023-04-05T09:05:47.578Z,6.53
2023-04-05T09:08:09.047Z,6.37
2023-04-05T09:10:31.130Z,6.53
2023-04-05T09:12:53.259Z,6.97
2023-04-05T09:15:16.670Z,6.60
2023-04-05T09:17:38.936Z,6.43
2023-04-05T09:19:59.803Z,5.80
2023-04-05T09:22:21.173Z,6.50
2023-04-05T09:24:43.549Z,6.10
2023-04-05T09:27:05.790Z,8.03
2023-04-05T09:29:30.425Z,8.13
2023-04-05T09:31:53.412Z,6.70
2023-04-05T09:34:21.135Z,5.93
2023-04-05T09:36:45.336Z,6.00
2023-04-05T09:39:07.374Z,6.37
2023-04-05T09:41:28.853Z,7.43
2023-04-05T09:43:50.192Z,5.87
2023-04-05T09:46:29.511Z,5.90
2023-04-05T09:48:52.767Z,6.10
2023-04-05T09:51:13.942Z,6.00
2023-04-05T09:53:35.045Z,5.60
2023-04-05T09:56:09.619Z,6.53
2023-04-05T09:58:33.335Z,5.77
2023-04-05T10:01:03.258Z,6.57
2023-04-05T10:03:47.236Z,5.93
2023-04-05T10:06:10.045Z,5.67
2023-04-05T10:08:31.371Z,6.13
2023-04-05T10:10:54.921Z,6.40
2023-04-05T10:13:17.802Z,6.53
2023-04-05T10:15:38.916Z,6.00
2023-04-05T10:18:04.741Z,5.50
2023-04-05T10:20:28.089Z,6.43
2023-04-05T10:23:01.241Z,6.10
2023-04-05T10:25:26.164Z,6.27
2023-04-05T10:27:48.493Z,6.60
2023-04-05T10:30:10.505Z,6.00
2023-04-05T10:32:36.319Z,7.90
2023-04-05T10:34:58.809Z,5.93
2023-04-05T10:37:26.577Z,7.00
2023-04-05T10:39:49.223Z,6.10
2023-04-05T10:42:14.845Z,6.20
2023-04-05T10:44:37.763Z,5.73
2023-04-05T10:46:59.372Z,6.10
2023-04-05T10:49:22.934Z,6.30
2023-04-05T10:51:45.150Z,7.10
2023-04-05T10:54:09.039Z,8.03
2023-04-05T10:56:32.130Z,7.03
2023-04-05T10:58:53.885Z,6.23
2023-04-05T11:01:17.437Z,6.33
2023-04-05T11:03:49.134Z,6.60
2023-04-05T11:06:19.129Z,6.27
2023-04-05T11:08:43.279Z,6.03
2023-04-05T11:11:05.160Z,6.30
2023-04-05T11:13:48.723Z,6.20
2023-04-05T11:16:10.078Z,6.77
2023-04-05T11:18:31.421Z,6.43
2023-04-05T11:20:55.777Z,6.70
2023-04-05T11:23:18.700Z,6.57
2023-04-05T11:25:41.392Z,6.50
2023-04-05T11:28:02.404Z,6.40
2023-04-05T11:30:46.711Z,6.20
2023-04-05T11:33:09.089Z,6.03
2023-04-05T11:35:35.878Z,7.47
2023-04-05T11:37:58.930Z,5.87
2023-04-05T11:40:27.438Z,7.17
2023-04-05T11:42:48.716Z,6.80
2023-04-05T11:45:10.431Z,6.33
2023-04-05T11:47:32.838Z,6.77
2023-04-05T11:49:54.088Z,6.23
2023-04-05T11:52:16.082Z,6.43
2023-04-05T11:54:37.710Z,5.90
2023-04-05T11:56:59.119Z,6.47
2023-04-05T11:59:21.351Z,8.27
2023-04-05T12:01:45.564Z,6.07
2023-04-05T12:04:08.422Z,8.63
2023-04-05T12:06:29.588Z,6.83
2023-04-05T12:08:51.006Z,5.73
2023-04-05T12:11:13.301Z,6.20
2023-04-05T12:13:35.339Z,5.67
2023-04-05T12:15:58.621Z,6.10
2023-04-05T12:18:19.579Z,5.53
2023-04-05T12:20:42.331Z,5.87
2023-04-05T12:23:04.451Z,7.43
2023-04-05T12:25:25.835Z,5.77
2023-04-05T12:27:47.622Z,8.60
2023-04-05T12:30:14.762Z,5.93
2023-04-05T12:32:42.218Z,5.53
2023-04-05T12:35:06.744Z,6.03
2023-04-05T12:37:29.696Z,6.53
2023-04-05T12:39:51.129Z,5.73
2023-04-05T12:42:18.170Z,7.00
2023-04-05T12:44:39.394Z,6.10
2023-04-05T12:47:01.161Z,5.60
2023-04-05T12:49:22.366Z,6.00
2023-04-05T12:51:44.826Z,6.17
2023-04-05T12:54:07.704Z,5.97
2023-04-05T12:56:29.534Z,6.50
2023-04-05T12:58:50.725Z,6.60
2023-04-05T13:01:12.924Z,5.87
2023-04-05T13:03:34.186Z,6.93
2023-04-05T13:05:55.610Z,5.67
2023-04-05T13:08:18.405Z,6.57
2023-04-05T13:10:42.414Z,5.93
2023-04-05T13:13:03.726Z,6.60
2023-04-05T13:15:24.881Z,6.83
2023-04-05T13:17:49.909Z,7.63
2023-04-05T13:20:12.324Z,7.30
2023-04-05T13:22:33.359Z,6.43
2023-04-05T13:24:54.935Z,5.93
2023-04-05T13:27:17.259Z,6.27
2023-04-05T13:29:38.656Z,6.90
2023-04-05T13:31:59.957Z,6.60
2023-04-05T13:34:20.976Z,6.90
2023-04-05T13:36:42.160Z,6.57
2023-04-05T13:39:03.287Z,7.00
2023-04-05T13:41:24.565Z,6.30
2023-04-05T13:43:47.152Z,6.90
2023-04-05T13:46:08.456Z,6.83
2023-04-05T13:48:29.716Z,7.30
2023-04-05T13:50:51.116Z,6.43
2023-04-05T13:53:12.356Z,7.13
2023-04-05T13:55:33.785Z,6.63
2023-04-05T13:57:55.118Z,6.90
2023-04-05T14:00:18.415Z,7.50
2023-04-05T14:02:39.689Z,6.53
2023-04-05T14:05:01.348Z,6.20
2023-04-05T14:07:22.659Z,6.33
2023-04-05T14:09:44.707Z,6.43
2023-04-05T14:12:06.301Z,6.40
2023-04-05T14:14:27.535Z,6.60
2023-04-05T14:16:50.529Z,6.23
2023-04-05T14:19:11.890Z,6.20
2023-04-05T14:21:33.184Z,5.87
2023-04-05T14:23:56.969Z,6.47
2023-04-05T14:26:18.361Z,6.43
2023-04-05T14:28:39.611Z,6.00
2023-04-05T14:31:00.989Z,6.23
2023-04-05T14:33:23.968Z,6.10
2023-04-05T14:35:45.028Z,6.97
2023-04-05T14:38:06.334Z,6.43
2023-04-05T14:40:27.552Z,6.23
2023-04-05T14:42:50.239Z,7.97
2023-04-05T14:45:12.305Z,6.00
2023-04-05T14:47:33.713Z,6.03
2023-04-05T14:49:56.312Z,6.70
2023-04-05T14:52:17.455Z,6.40
2023-04-05T14:54:38.990Z,5.80
2023-04-05T14:57:00.351Z,6.13
2023-04-05T14:59:22.045Z,6.50
2023-04-05T15:01:45.545Z,6.13
2023-04-05T15:04:08.855Z,6.87
2023-04-05T15:06:32.309Z,6.07
2023-04-05T15:08:54.521Z,6.43
2023-04-05T15:11:16.068Z,7.00
2023-04-05T15:13:37.081Z,6.10
2023-04-05T15:15:58.252Z,6.50
2023-04-05T15:18:19.689Z,5.90
2023-04-05T15:20:41.166Z,5.80
2023-04-05T15:23:03.753Z,6.17
2023-04-05T15:25:25.057Z,6.40
2023-04-05T15:27:46.486Z,6.10
2023-04-05T15:30:08.656Z,7.07
2023-04-05T15:32:33.537Z,6.47
2023-04-05T15:34:55.142Z,6.80
2023-04-05T15:37:16.545Z,6.57
2023-04-05T15:39:39.112Z,6.63
2023-04-05T15:42:01.687Z,6.90
2023-04-05T15:44:22.849Z,6.70
2023-04-05T15:46:44.499Z,6.73
2023-04-05T15:49:06.035Z,6.77
2023-04-05T15:51:28.058Z,6.27
2023-04-05T15:53:49.258Z,6.00
2023-04-05T15:56:12.361Z,6.00
2023-04-05T15:58:33.980Z,6.30
2023-04-05T16:00:55.748Z,5.63
2023-04-05T16:03:17.173Z,5.57
2023-04-05T16:05:38.482Z,5.37
2023-04-05T16:07:59.705Z,5.60
2023-04-05T16:10:21.099Z,5.13
2023-04-05T16:12:43.817Z,5.00
2023-04-05T16:15:05.212Z,5.87
2023-04-05T16:17:27.797Z,11.80
2023-04-05T16:19:49.313Z,5.30
2023-04-05T16:22:11.125Z,5.47
2023-04-05T16:24:36.582Z,5.20
2023-04-05T16:26:58.042Z,6.00
2023-04-05T16:29:20.806Z,5.93
2023-04-05T16:31:46.969Z,5.57
2023-04-05T16:34:08.438Z,5.50
2023-04-05T16:36:29.896Z,5.57
2023-04-05T16:38:51.850Z,4.63
2023-04-05T16:41:13.428Z,4.87
2023-04-05T16:43:35.257Z,5.10
2023-04-05T16:45:58.154Z,5.00
2023-04-05T16:48:19.671Z,4.70
2023-04-05T16:50:41.409Z,4.67
2023-04-05T16:53:02.760Z,5.00
2023-04-05T16:55:24.085Z,5.30
2023-04-05T16:57:45.279Z,4.93
2023-04-05T17:00:07.309Z,5.53
2023-04-05T17:02:30.487Z,5.20
2023-04-05T17:04:52.987Z,5.00
2023-04-05T17:07:14.494Z,5.10
2023-04-05T17:09:36.067Z,5.40
2023-04-05T17:11:57.491Z,5.60
2023-04-05T17:14:18.889Z,5.50
2023-04-05T17:16:40.976Z,4.90
2023-04-05T17:19:03.613Z,4.80
2023-04-05T17:21:25.901Z,4.97
2023-04-05T17:23:47.471Z,5.07
2023-04-05T17:26:08.891Z,6.23
2023-04-05T17:28:31.940Z,5.20
2023-04-05T17:30:53.158Z,6.00
2023-04-05T17:33:14.481Z,6.13
2023-04-05T17:35:38.019Z,6.10
2023-04-05T17:37:59.801Z,5.63
2023-04-05T17:40:21.309Z,6.23
2023-04-05T17:42:42.501Z,7.50
2023-04-05T17:45:03.898Z,6.00
2023-04-05T17:47:25.470Z,8.97
2023-04-05T17:49:47.151Z,7.53
2023-04-05T17:52:09.798Z,10.00
2023-04-05T17:54:31.697Z,7.40
2023-04-05T17:56:52.835Z,7.03
2023-04-05T17:59:14.102Z,6.40
2023-04-05T18:01:35.335Z,6.37
2023-04-05T18:03:57.052Z,7.00
2023-04-05T18:06:20.093Z,7.90
2023-04-05T18:08:42.918Z,8.20
2023-04-05T18:11:04.872Z,6.90
2023-04-05T18:13:26.788Z,7.00
2023-04-05T18:15:48.249Z,6.83
2023-04-05T18:18:09.650Z,6.70
2023-04-05T18:20:31.210Z,7.13
2023-04-05T18:22:52.172Z,6.57
2023-04-05T18:25:14.817Z,7.87
2023-04-05T18:27:35.970Z,7.20
2023-04-05T18:29:57.061Z,7.60
2023-04-05T18:32:18.596Z,9.40
2023-04-05T18:34:40.100Z,8.57
2023-04-05T18:37:02.003Z,7.30
2023-04-05T18:39:25.090Z,7.43
2023-04-05T18:41:49.765Z,8.53
2023-04-05T18:44:10.912Z,7.77
2023-04-05T18:46:32.389Z,9.27
2023-04-05T18:48:54.857Z,7.30
2023-04-05T18:51:16.309Z,7.50
2023-04-05T18:53:37.640Z,7.73
2023-04-05T18:55:58.792Z,7.97
2023-04-05T18:58:21.879Z,8.10
2023-04-05T19:00:43.137Z,8.93
2023-04-05T19:03:04.674Z,8.20
2023-04-05T19:05:26.430Z,9.80
2023-04-05T19:07:47.924Z,8.73
2023-04-05T19:10:10.103Z,8.67
2023-04-05T19:12:31.232Z,9.07
2023-04-05T19:14:54.190Z,11.27
2023-04-05T19:17:15.442Z,8.17
2023-04-05T19:19:37.609Z,8.10
2023-04-05T19:21:58.863Z,7.87
2023-04-05T19:24:21.824Z,11.47
2023-04-05T19:26:43.027Z,9.73
2023-04-05T19:29:04.465Z,8.37
2023-04-05T19:31:27.783Z,8.33
2023-04-05T19:33:50.146Z,8.67
2023-04-05T19:36:11.360Z,9.13
2023-04-05T19:38:32.979Z,8.93
2023-04-05T19:40:54.865Z,9.63
2023-04-05T19:43:16.408Z,9.10
2023-04-05T19:45:37.973Z,9.47
2023-04-05T19:48:01.274Z,9.97
2023-04-05T19:50:43.824Z,9.57
2023-04-05T19:53:07.752Z,9.27
2023-04-05T19:55:29.765Z,8.67
2023-04-05T19:57:51.488Z,8.60
2023-04-05T20:00:27.951Z,9.10
2023-04-05T20:02:49.402Z,8.73
2023-04-05T20:05:14.616Z,8.20
2023-04-05T20:07:37.322Z,10.17
2023-04-05T20:09:58.344Z,9.03
2023-04-05T20:12:22.394Z,9.30
2023-04-05T20:14:45.880Z,9.70
2023-04-05T20:17:07.417Z,8.70
2023-04-05T20:19:29.543Z,9.70
2023-04-05T20:21:52.163Z,9.03
2023-04-05T20:24:15.417Z,9.00
2023-04-05T20:26:37.088Z,9.30
2023-04-05T20:28:58.856Z,9.37
2023-04-05T20:31:21.952Z,8.77
2023-04-05T20:33:47.680Z,10.97
2023-04-05T20:36:11.059Z,9.03
2023-04-05T20:38:33.728Z,8.90
2023-04-05T20:40:55.118Z,8.93
2023-04-05T20:43:17.073Z,9.90
2023-04-05T20:45:38.386Z,11.03
2023-04-05T20:48:01.077Z,10.30
2023-04-05T20:50:22.617Z,10.70
2023-04-05T20:52:44.018Z,10.50
2023-04-05T20:55:07.853Z,10.53
2023-04-05T20:57:29.434Z,10.50
2023-04-05T20:59:51.210Z,11.17
2023-04-05T21:02:12.287Z,12.03
2023-04-05T21:04:34.602Z,9.97
2023-04-05T21:06:56.531Z,14.30
2023-04-05T21:09:17.863Z,9.57
2023-04-05T21:11:40.419Z,9.87
2023-04-05T21:14:01.471Z,10.53
2023-04-05T21:16:22.825Z,10.00
2023-04-05T21:18:44.112Z,10.10
2023-04-05T21:21:05.744Z,10.13
2023-04-05T21:23:27.902Z,9.83
2023-04-05T21:25:49.393Z,11.93
2023-04-05T21:28:12.240Z,11.30
2023-04-05T21:30:33.494Z,12.03
2023-04-05T21:32:54.943Z,13.77
2023-04-05T21:35:16.098Z,11.90
2023-04-05T21:37:37.399Z,13.80
2023-04-05T21:39:59.691Z,13.57
2023-04-05T21:42:22.913Z,11.70
2023-04-05T21:44:45.448Z,14.57
2023-04-05T21:47:06.453Z,12.47
2023-04-05T21:49:28.285Z,13.03
2023-04-05T21:51:49.881Z,13.00
2023-04-05T21:54:11.335Z,12.43
2023-04-05T21:56:32.815Z,14.00
2023-04-05T21:58:54.192Z,14.30
2023-04-05T22:01:17.206Z,12.93
2023-04-05T22:03:38.477Z,13.00
2023-04-05T22:05:59.779Z,14.23
2023-04-05T22:08:21.299Z,12.17
2023-04-05T22:10:43.712Z,13.80
2023-04-05T22:13:04.957Z,13.73
2023-04-05T22:15:26.247Z,14.83
2023-04-05T22:17:49.315Z,12.73
2023-04-05T22:20:11.374Z,13.07
2023-04-05T22:22:32.598Z,11.97
2023-04-05T22:24:54.155Z,12.17
2023-04-05T22:27:15.777Z,13.07
2023-04-05T22:29:37.165Z,12.67
2023-04-05T22:31:58.915Z,11.60
2023-04-05T22:34:21.569Z,11.50
2023-04-05T22:36:43.152Z,12.13
2023-04-05T22:39:04.557Z,12.10
2023-04-05T22:41:26.199Z,12.43
2023-04-05T22:43:47.801Z,13.67
2023-04-05T22:46:09.434Z,12.53
2023-04-05T22:48:30.595Z,14.57
2023-04-05T22:50:52.969Z,12.93
2023-04-05T22:53:14.411Z,12.33
2023-04-05T22:55:37.446Z,12.20
2023-04-05T22:57:59.058Z,12.83
2023-04-05T23:00:20.678Z,12.43
2023-04-05T23:02:42.207Z,13.03
2023-04-05T23:05:03.660Z,13.07
2023-04-05T23:07:26.567Z,14.57
2023-04-05T23:09:48.155Z,14.60
2023-04-05T23:12:11.476Z,13.63
2023-04-05T23:14:32.640Z,13.03
2023-04-05T23:16:54.088Z,13.73
2023-04-05T23:19:18.036Z,14.90
2023-04-05T23:21:39.276Z,13.70
2023-04-05T23:24:03.022Z,12.43
2023-04-05T23:26:24.864Z,14.17
2023-04-05T23:28:46.055Z,12.87
2023-04-05T23:31:07.387Z,13.63
2023-04-05T23:33:28.730Z,15.90
2023-04-05T23:35:50.122Z,14.07
2023-04-05T23:38:11.742Z,12.73
2023-04-05T23:40:34.620Z,14.40
2023-04-05T23:42:55.710Z,13.87
2023-04-05T23:45:16.714Z,14.73
2023-04-05T23:47:38.010Z,14.80
2023-04-05T23:49:59.506Z,14.23
2023-04-05T23:52:22.485Z,15.30
2023-04-05T23:54:44.211Z,15.57
2023-04-05T23:57:07.113Z,16.33
2023-04-05T23:59:28.486Z,15.47
